Time;durP1;ratioP1;P1;durP2;ratioP2;P2;SDS_P1;SDS_P2;PMS_P1;PMS_P2;Temp;Humidity;BMP_temperature;BMP_pressure;BME280_temperature;BME280_humidity;BME280_pressure;Samples;Min_cycle;Max_cycle;Signal;HPM_P1;HPM_P2
2023/05/25 00:00:36;;;;;;;13.32;4.70;;;;;;;11.82;96.96;102447.38;5019358;28;20132;-66
2023/05/25 00:03:16;;;;;;;16.52;5.35;;;;;;;11.87;97.45;102442.06;5036327;28;20045;-66
2023/05/25 00:05:44;;;;;;;15.13;4.75;;;;;;;11.90;96.51;102441.59;5037547;28;20041;-67
2023/05/25 00:08:12;;;;;;;14.27;5.07;;;;;;;11.88;96.75;102451.09;5037778;28;20045;-67
2023/05/25 00:10:39;;;;;;;14.35;5.55;;;;;;;11.91;96.55;102447.91;5053537;28;20435;-66
2023/05/25 00:13:08;;;;;;;13.20;4.95;;;;;;;11.82;96.20;102444.66;5056365;28;20466;-69
2023/05/25 00:15:36;;;;;;;11.75;4.57;;;;;;;11.76;97.00;102445.63;5056911;28;20041;-66
2023/05/25 00:18:04;;;;;;;13.93;5.22;;;;;;;11.74;97.34;102447.75;5051703;28;20061;-67
2023/05/25 00:20:32;;;;;;;12.00;4.63;;;;;;;11.79;97.50;102450.59;5053308;28;20041;-66
2023/05/25 00:23:01;;;;;;;14.38;4.78;;;;;;;11.79;96.12;102438.84;5056345;28;20106;-67
2023/05/25 00:25:29;;;;;;;12.13;4.80;;;;;;;11.68;96.57;102443.22;5056832;28;20083;-66
2023/05/25 00:27:56;;;;;;;13.55;5.05;;;;;;;11.66;97.27;102439.88;5062018;28;20444;-67
2023/05/25 00:30:24;;;;;;;11.35;4.50;;;;;;;11.74;97.33;102445.03;5054952;28;20063;-66
2023/05/25 00:32:54;;;;;;;13.15;4.88;;;;;;;11.69;96.53;102447.63;5056087;28;20048;-66
2023/05/25 00:35:22;;;;;;;13.27;4.88;;;;;;;11.68;97.01;102444.03;5038252;28;20049;-66
2023/05/25 00:37:50;;;;;;;12.73;4.30;;;;;;;11.61;96.95;102446.06;5037978;28;20049;-67
2023/05/25 00:40:18;;;;;;;11.57;4.53;;;;;;;11.60;97.67;102449.03;5055643;28;20049;-66
2023/05/25 00:42:46;;;;;;;12.90;5.13;;;;;;;11.64;96.95;102452.94;5038547;28;20087;-67
2023/05/25 00:45:13;;;;;;;9.10;4.03;;;;;;;11.69;96.94;102455.81;5054541;28;20083;-66
2023/05/25 00:47:43;;;;;;;13.23;4.95;;;;;;;11.69;96.71;102455.81;5054485;28;20048;-66
2023/05/25 00:50:14;;;;;;;10.20;4.55;;;;;;;11.56;97.20;102445.09;5034684;28;20045;-66
2023/05/25 00:52:42;;;;;;;12.18;4.88;;;;;;;11.56;97.74;102447.84;5033981;28;20045;-66
2023/05/25 00:55:12;;;;;;;11.02;4.30;;;;;;;11.60;97.04;102441.66;5018303;28;20105;-67
2023/05/25 00:57:44;;;;;;;12.95;5.05;;;;;;;11.56;97.24;102435.00;5020256;28;20079;-66
2023/05/25 01:00:14;;;;;;;13.85;4.70;;;;;;;11.58;96.41;102446.53;5041584;28;20129;-66
2023/05/25 01:02:43;;;;;;;14.80;4.95;;;;;;;11.59;96.69;102444.63;5050675;28;20049;-67
2023/05/25 01:05:11;;;;;;;11.60;4.32;;;;;;;11.54;96.83;102447.22;5051064;28;20053;-67
2023/05/25 01:07:41;;;;;;;11.32;5.03;;;;;;;11.51;97.27;102456.72;5042267;28;20120;-68
2023/05/25 01:10:09;;;;;;;13.07;4.43;;;;;;;11.53;96.61;102457.31;5053408;28;20102;-68
2023/05/25 01:12:38;;;;;;;15.30;4.57;;;;;;;11.48;96.88;102463.47;5054156;28;20075;-67
2023/05/25 01:15:07;;;;;;;11.63;4.50;;;;;;;11.47;97.20;102459.09;5037535;28;20057;-67
2023/05/25 01:17:38;;;;;;;10.63;4.15;;;;;;;11.47;96.87;102455.53;5053728;28;20409;-66
2023/05/25 01:20:07;;;;;;;10.23;4.20;;;;;;;11.44;97.32;102458.72;5054328;28;20524;-67
2023/05/25 01:22:48;;;;;;;11.88;4.65;;;;;;;11.41;97.06;102457.28;5054973;28;20120;-66
2023/05/25 01:25:22;;;;;;;12.27;4.43;;;;;;;11.41;97.06;102465.47;5056678;28;20473;-66
2023/05/25 01:28:10;;;;;;;12.30;4.65;;;;;;;11.41;97.28;102468.22;5055628;28;20048;-67
2023/05/25 01:30:41;;;;;;;12.27;4.63;;;;;;;11.44;97.02;102469.63;5033879;28;20525;-67
2023/05/25 01:33:10;;;;;;;10.70;4.65;;;;;;;11.40;96.74;102473.88;5054986;28;20072;-67
2023/05/25 01:35:39;;;;;;;8.75;3.88;;;;;;;11.37;96.67;102474.38;5037586;28;20102;-66
2023/05/25 01:38:07;;;;;;;10.23;4.07;;;;;;;11.36;98.09;102478.16;5037067;28;20458;-67
2023/05/25 01:40:34;;;;;;;11.98;4.68;;;;;;;11.41;97.74;102475.56;5003547;28;20485;-67
2023/05/25 01:43:03;;;;;;;11.68;4.57;;;;;;;11.44;97.00;102478.66;5033544;28;20056;-67
2023/05/25 01:45:33;;;;;;;10.63;4.10;;;;;;;11.39;97.18;102472.25;5038409;28;20055;-66
2023/05/25 01:48:18;;;;;;;11.27;4.43;;;;;;;11.35;97.80;102477.31;5053597;28;20041;-66
2023/05/25 01:50:59;;;;;;;13.87;4.37;;;;;;;11.39;97.86;102480.44;5054550;28;20037;-66
2023/05/25 01:53:38;;;;;;;11.98;4.35;;;;;;;11.42;97.19;102485.41;5036027;28;20107;-66
2023/05/25 01:56:08;;;;;;;10.18;4.30;;;;;;;11.42;96.73;102480.78;5024223;28;20045;-65
2023/05/25 01:58:38;;;;;;;13.25;4.60;;;;;;;11.40;96.67;102479.34;5035882;28;20489;-65
2023/05/25 02:01:08;;;;;;;9.85;4.47;;;;;;;11.37;96.51;102479.81;5052597;28;20049;-65
2023/05/25 02:03:37;;;;;;;8.48;4.03;;;;;;;11.32;97.40;102477.78;5033768;28;20083;-66
2023/05/25 02:06:05;;;;;;;9.38;4.50;;;;;;;11.26;97.65;102476.00;5019113;28;20084;-65
2023/05/25 02:08:34;;;;;;;11.57;4.50;;;;;;;11.25;97.89;102479.78;5022498;28;20162;-66
2023/05/25 02:11:02;;;;;;;10.90;4.32;;;;;;;11.24;97.67;102483.59;5061613;28;20053;-67
2023/05/25 02:13:30;;;;;;;13.68;4.90;;;;;;;11.23;97.81;102477.31;5046370;28;20045;-68
2023/05/25 02:15:57;;;;;;;11.60;4.53;;;;;;;11.14;97.82;102478.69;5045674;28;20096;-67
2023/05/25 02:18:26;;;;;;;11.50;4.57;;;;;;;11.10;99.24;102480.19;5036759;28;20065;-67
2023/05/25 02:20:54;;;;;;;13.30;5.07;;;;;;;11.14;98.83;102480.59;5041740;28;20060;-67
2023/05/25 02:23:22;;;;;;;10.70;4.65;;;;;;;11.17;98.76;102478.22;5080805;28;20072;-67
2023/05/25 02:25:50;;;;;;;11.93;4.43;;;;;;;11.21;97.87;102481.31;5064081;28;20069;-67
2023/05/25 02:28:18;;;;;;;11.13;4.47;;;;;;;11.19;98.64;102472.53;5034372;28;20183;-67
2023/05/25 02:30:46;;;;;;;11.93;4.93;;;;;;;11.18;98.46;102481.75;5032816;28;20080;-67
2023/05/25 02:33:14;;;;;;;12.05;4.68;;;;;;;11.18;98.23;102476.31;5016405;28;20444;-67
2023/05/25 02:35:42;;;;;;;9.93;4.65;;;;;;;11.18;98.10;102479.88;5066644;28;20048;-67
2023/05/25 02:38:10;;;;;;;13.05;4.97;;;;;;;11.16;98.27;102475.72;5033218;28;20080;-66
2023/05/25 02:40:38;;;;;;;11.45;4.70;;;;;;;11.17;98.55;102475.47;5032855;28;20057;-66
2023/05/25 02:43:06;;;;;;;11.43;4.93;;;;;;;11.18;98.03;102474.41;5033695;28;20081;-66
2023/05/25 02:45:34;;;;;;;11.55;4.82;;;;;;;11.22;98.03;102477.53;5016277;28;20050;-66
2023/05/25 02:48:02;;;;;;;10.25;4.93;;;;;;;11.21;97.19;102473.16;5050608;28;20118;-67
2023/05/25 02:50:30;;;;;;;18.25;5.13;;;;;;;11.11;97.45;102475.56;5036330;28;20047;-66
2023/05/25 02:53:02;;;;;;;11.52;4.63;;;;;;;11.01;98.49;102476.94;5052635;28;20389;-67
2023/05/25 02:55:30;;;;;;;11.40;4.78;;;;;;;10.95;98.13;102477.88;5071575;28;20048;-66
2023/05/25 02:57:58;;;;;;;11.95;4.60;;;;;;;10.88;98.47;102479.88;5054110;28;20616;-66
2023/05/25 03:00:45;;;;;;;12.55;4.70;;;;;;;10.82;99.62;102480.75;5073099;28;20058;-66
2023/05/25 03:03:14;;;;;;;12.30;4.50;;;;;;;10.83;100.00;102483.28;5073696;28;20090;-66
2023/05/25 03:05:42;;;;;;;9.68;4.47;;;;;;;10.90;99.73;102488.66;5057454;28;20132;-67
2023/05/25 03:08:11;;;;;;;10.15;4.50;;;;;;;10.84;99.31;102487.66;5052415;28;20534;-66
2023/05/25 03:10:38;;;;;;;10.35;4.65;;;;;;;10.76;99.96;102489.88;5052100;28;20068;-66
2023/05/25 03:13:07;;;;;;;13.32;5.07;;;;;;;10.65;99.96;102483.28;5051709;28;20072;-67
2023/05/25 03:15:35;;;;;;;10.48;4.78;;;;;;;10.58;100.00;102493.41;5055817;28;20056;-66
2023/05/25 03:18:05;;;;;;;11.07;4.85;;;;;;;10.54;100.00;102493.06;5053588;28;20057;-68
2023/05/25 03:20:36;;;;;;;12.88;5.55;;;;;;;10.60;100.00;102497.59;5039953;28;20046;-67
2023/05/25 03:23:04;;;;;;;9.18;4.50;;;;;;;10.71;100.00;102500.63;5021885;28;20053;-67
2023/05/25 03:25:34;;;;;;;9.27;3.95;;;;;;;10.74;100.00;102502.91;5059548;28;20542;-67
2023/05/25 03:28:02;;;;;;;12.32;4.22;;;;;;;10.71;100.00;102515.09;5075927;28;20507;-67
2023/05/25 03:30:30;;;;;;;10.20;4.53;;;;;;;10.66;100.00;102515.78;5053581;28;20057;-67
2023/05/25 03:32:58;;;;;;;11.05;4.93;;;;;;;10.67;100.00;102513.88;5059355;28;20044;-66
2023/05/25 03:35:34;;;;;;;10.02;4.70;;;;;;;10.63;100.00;102518.97;5062930;28;20071;-66
2023/05/25 03:38:01;;;;;;;11.80;4.55;;;;;;;10.62;100.00;102519.19;5059326;28;20048;-67
2023/05/25 03:40:29;;;;;;;12.65;4.90;;;;;;;10.50;100.00;102526.44;5076221;28;20037;-66
2023/05/25 03:42:57;;;;;;;11.63;5.13;;;;;;;10.48;100.00;102520.38;5062225;28;20436;-68
2023/05/25 03:45:25;;;;;;;15.10;5.38;;;;;;;10.49;100.00;102519.34;5055990;28;20060;-67
2023/05/25 03:47:53;;;;;;;10.88;4.72;;;;;;;10.45;100.00;102527.13;5056224;28;20136;-68
2023/05/25 03:50:21;;;;;;;11.52;4.70;;;;;;;10.51;100.00;102536.28;5040015;28;20052;-70
2023/05/25 03:52:49;;;;;;;12.85;5.18;;;;;;;10.55;100.00;102532.88;5034152;28;20129;-66
2023/05/25 03:55:18;;;;;;;11.52;4.30;;;;;;;10.51;100.00;102541.72;5019028;28;20049;-68
2023/05/25 03:57:45;;;;;;;11.18;4.38;;;;;;;10.39;100.00;102541.63;5051582;28;20489;-66
2023/05/25 04:00:14;;;;;;;12.70;5.05;;;;;;;10.36;100.00;102545.63;5058980;28;20052;-67
2023/05/25 04:02:42;;;;;;;12.23;4.88;;;;;;;10.36;100.00;102544.81;5051943;28;20041;-67
2023/05/25 04:05:10;;;;;;;12.70;4.68;;;;;;;10.33;100.00;102539.81;5068146;28;20103;-66
2023/05/25 04:07:39;;;;;;;10.60;4.75;;;;;;;10.36;100.00;102539.34;5054235;28;20431;-67
2023/05/25 04:10:07;;;;;;;12.18;5.20;;;;;;;10.36;100.00;102533.91;5038461;28;20107;-65
2023/05/25 04:12:35;;;;;;;12.45;5.00;;;;;;;10.38;100.00;102534.53;5024194;28;20051;-66
2023/05/25 04:15:04;;;;;;;11.73;4.65;;;;;;;10.42;100.00;102524.84;5036208;28;20052;-66
2023/05/25 04:17:35;;;;;;;11.65;4.65;;;;;;;10.48;100.00;102534.00;5020027;28;20168;-66
2023/05/25 04:20:09;;;;;;;10.27;4.35;;;;;;;10.51;100.00;102533.53;5043209;28;20064;-67
2023/05/25 04:22:37;;;;;;;12.35;4.88;;;;;;;10.56;100.00;102529.09;5056603;28;20549;-66
2023/05/25 04:25:07;;;;;;;11.32;4.90;;;;;;;10.56;100.00;102542.72;5040091;28;20037;-64
2023/05/25 04:27:35;;;;;;;10.05;4.63;;;;;;;10.53;100.00;102539.59;5034787;28;20073;-66
2023/05/25 04:30:05;;;;;;;10.52;4.53;;;;;;;10.54;100.00;102542.13;5025353;28;20446;-65
2023/05/25 04:32:45;;;;;;;14.77;5.50;;;;;;;10.54;100.00;102538.56;5059469;28;20044;-66
2023/05/25 04:35:35;;;;;;;13.82;4.88;;;;;;;10.50;100.00;102548.25;5074546;28;20403;-66
2023/05/25 04:38:03;;;;;;;11.70;5.03;;;;;;;10.52;100.00;102555.13;5074274;28;20474;-66
2023/05/25 04:40:32;;;;;;;12.10;4.93;;;;;;;10.55;100.00;102551.94;5058581;28;20049;-66
2023/05/25 04:43:02;;;;;;;12.10;5.45;;;;;;;10.53;100.00;102547.78;5054795;28;20428;-67
2023/05/25 04:45:32;;;;;;;13.55;4.88;;;;;;;10.48;100.00;102548.47;5038364;28;20497;-67
2023/05/25 04:48:01;;;;;;;12.43;5.20;;;;;;;10.34;100.00;102553.22;5054400;28;20057;-67
2023/05/25 04:50:30;;;;;;;10.65;4.53;;;;;;;10.29;100.00;102554.94;5054122;28;20053;-66
2023/05/25 04:52:58;;;;;;;12.38;4.60;;;;;;;10.23;100.00;102556.63;5041627;28;20449;-66
2023/05/25 04:55:26;;;;;;;9.90;4.30;;;;;;;10.13;100.00;102553.59;5050837;28;20045;-66
2023/05/25 04:57:54;;;;;;;12.63;4.95;;;;;;;10.12;100.00;102560.91;5057580;28;20116;-68
2023/05/25 05:00:23;;;;;;;11.63;4.90;;;;;;;10.20;100.00;102567.97;5020784;28;20057;-66
2023/05/25 05:02:55;;;;;;;14.73;5.10;;;;;;;10.27;100.00;102570.63;5046769;28;20109;-67
2023/05/25 05:05:23;;;;;;;13.85;5.00;;;;;;;10.33;100.00;102572.50;5039298;28;20060;-67
2023/05/25 05:07:52;;;;;;;12.13;5.40;;;;;;;10.37;100.00;102566.38;5038038;28;20072;-66
2023/05/25 05:10:20;;;;;;;13.57;6.07;;;;;;;10.42;100.00;102569.28;5059598;28;20098;-67
2023/05/25 05:12:53;;;;;;;13.43;5.55;;;;;;;10.40;100.00;102573.28;5057919;28;20106;-66
2023/05/25 05:15:21;;;;;;;13.73;5.40;;;;;;;10.42;100.00;102565.72;5064513;28;20537;-67
2023/05/25 05:17:49;;;;;;;12.05;5.13;;;;;;;10.40;100.00;102568.66;5053654;28;20056;-67
2023/05/25 05:20:17;;;;;;;16.35;5.93;;;;;;;10.35;100.00;102557.59;5053967;28;20052;-66
2023/05/25 05:22:46;;;;;;;12.63;5.32;;;;;;;10.39;100.00;102569.72;5038300;28;20442;-66
2023/05/25 05:25:14;;;;;;;12.38;5.07;;;;;;;10.44;100.00;102574.50;5036082;28;20056;-66
2023/05/25 05:27:41;;;;;;;13.75;5.18;;;;;;;10.46;100.00;102577.81;5053917;28;20098;-66
2023/05/25 05:30:17;;;;;;;14.13;5.32;;;;;;;10.51;100.00;102586.19;5053706;28;20053;-67
2023/05/25 05:32:45;;;;;;;13.05;5.30;;;;;;;10.54;100.00;102584.91;5037165;28;20057;-65
2023/05/25 05:35:14;;;;;;;11.18;5.15;;;;;;;10.54;100.00;102588.44;5058871;28;20041;-66
2023/05/25 05:37:46;;;;;;;15.98;5.78;;;;;;;10.60;100.00;102590.25;5033612;28;20044;-66
2023/05/25 05:40:14;;;;;;;12.00;5.15;;;;;;;10.60;100.00;102594.88;4322477;28;9999936;-67
2023/05/25 05:42:42;;;;;;;12.07;4.78;;;;;;;10.69;100.00;102598.16;5030477;28;20046;-68
2023/05/25 05:45:10;;;;;;;15.63;5.72;;;;;;;10.79;100.00;102609.38;5029589;28;20129;-70
2023/05/25 05:47:38;;;;;;;12.32;4.85;;;;;;;10.78;100.00;102603.09;5041611;28;20044;-67
2023/05/25 05:50:07;;;;;;;13.73;4.97;;;;;;;10.80;100.00;102602.84;5050072;28;20057;-67
2023/05/25 05:52:37;;;;;;;13.30;5.10;;;;;;;10.76;100.00;102605.22;5049296;28;20451;-66
2023/05/25 05:55:05;;;;;;;14.10;5.35;;;;;;;10.87;100.00;102603.63;5049669;28;20052;-68
2023/05/25 05:57:33;;;;;;;13.02;4.45;;;;;;;10.97;100.00;102606.69;5045805;28;20052;-67
2023/05/25 06:00:03;;;;;;;12.48;5.18;;;;;;;10.98;100.00;102611.06;5033142;28;20053;-66
2023/05/25 06:02:42;;;;;;;16.45;4.93;;;;;;;10.98;100.00;102613.78;5070244;28;20662;-69
2023/05/25 06:05:14;;;;;;;11.88;5.07;;;;;;;11.01;100.00;102618.78;5070394;28;20040;-67
2023/05/25 06:07:42;;;;;;;13.95;4.82;;;;;;;11.04;100.00;102622.94;5043828;28;20057;-68
2023/05/25 06:10:12;;;;;;;15.18;5.32;;;;;;;11.13;100.00;102620.75;5013456;28;20061;-69
2023/05/25 06:12:39;;;;;;;13.38;5.07;;;;;;;11.17;100.00;102621.97;5035039;28;20123;-66
2023/05/25 06:15:08;;;;;;;13.95;4.95;;;;;;;11.22;100.00;102620.22;5053126;28;20052;-68
2023/05/25 06:17:37;;;;;;;10.85;4.20;;;;;;;11.27;100.00;102616.81;5053860;28;20053;-66
2023/05/25 06:20:06;;;;;;;14.38;5.38;;;;;;;11.32;100.00;102622.41;5034879;28;20053;-67
2023/05/25 06:22:34;;;;;;;9.07;3.97;;;;;;;11.40;100.00;102624.84;5024911;28;20481;-67
2023/05/25 06:25:02;;;;;;;12.98;4.60;;;;;;;11.40;100.00;102627.59;5044533;28;20045;-67
2023/05/25 06:27:30;;;;;;;17.05;5.28;;;;;;;11.36;100.00;102629.09;5063425;28;20048;-66
2023/05/25 06:29:58;;;;;;;15.43;4.57;;;;;;;11.42;100.00;102628.16;5041339;28;20045;-67
2023/05/25 06:32:25;;;;;;;16.95;5.60;;;;;;;11.46;100.00;102631.28;5043480;28;20454;-67
2023/05/25 06:34:53;;;;;;;13.45;4.68;;;;;;;11.47;100.00;102627.47;5058335;28;20045;-67
2023/05/25 06:37:22;;;;;;;13.82;4.93;;;;;;;11.51;100.00;102632.25;5053479;28;20055;-67
2023/05/25 06:39:50;;;;;;;14.82;4.95;;;;;;;11.57;100.00;102637.84;5043109;28;20053;-67
2023/05/25 06:42:18;;;;;;;10.82;3.72;;;;;;;11.61;100.00;102633.59;5034058;28;20041;-67
2023/05/25 06:44:53;;;;;;;11.00;4.28;;;;;;;11.65;100.00;102643.00;5039198;28;20124;-66
2023/05/25 06:47:20;;;;;;;12.77;4.32;;;;;;;11.70;100.00;102643.16;5026252;28;20099;-66
2023/05/25 06:49:49;;;;;;;14.93;4.82;;;;;;;11.74;100.00;102644.38;5049494;28;20061;-68
2023/05/25 06:52:16;;;;;;;11.52;4.25;;;;;;;11.79;100.00;102643.69;5071478;28;20056;-67
2023/05/25 06:54:44;;;;;;;12.57;4.25;;;;;;;11.83;100.00;102653.88;5056232;28;20048;-67
2023/05/25 06:57:12;;;;;;;14.95;5.78;;;;;;;11.86;100.00;102653.44;5066200;28;20044;-67
2023/05/25 06:59:40;;;;;;;13.75;5.18;;;;;;;11.85;100.00;102651.75;5053976;28;20080;-66
2023/05/25 07:02:07;;;;;;;13.13;4.90;;;;;;;11.87;100.00;102660.59;5048007;28;20308;-67
2023/05/25 07:04:35;;;;;;;16.48;5.07;;;;;;;11.91;100.00;102656.34;5053221;28;20057;-68
2023/05/25 07:07:03;;;;;;;16.00;5.65;;;;;;;11.93;100.00;102659.66;5052439;28;20049;-68
2023/05/25 07:09:31;;;;;;;15.30;5.30;;;;;;;11.97;100.00;102657.28;5052347;28;20052;-67
2023/05/25 07:11:59;;;;;;;16.20;5.50;;;;;;;12.04;99.73;102649.00;5052576;28;20056;-67
2023/05/25 07:14:27;;;;;;;17.15;5.68;;;;;;;12.04;98.47;102654.47;5054234;28;20099;-67
2023/05/25 07:16:55;;;;;;;15.32;5.78;;;;;;;12.05;98.44;102661.59;5053525;28;20110;-68
2023/05/25 07:19:23;;;;;;;16.55;5.78;;;;;;;12.09;98.26;102665.53;5054068;28;20056;-67
2023/05/25 07:21:51;;;;;;;16.13;5.38;;;;;;;12.14;98.09;102662.94;5054273;28;20051;-68
2023/05/25 07:24:18;;;;;;;13.50;5.15;;;;;;;12.16;98.39;102655.34;5072189;28;20053;-68
2023/05/25 07:26:48;;;;;;;18.00;5.35;;;;;;;12.20;98.03;102659.28;5052432;28;20049;-67
2023/05/25 07:29:16;;;;;;;19.65;5.00;;;;;;;12.26;99.04;102660.22;5054300;28;20045;-67
2023/05/25 07:31:44;;;;;;;18.52;6.15;;;;;;;12.28;97.52;102655.38;5035411;28;20044;-68
2023/05/25 07:34:12;;;;;;;15.20;5.72;;;;;;;12.30;98.01;102667.72;5051850;28;20083;-68
2023/05/25 07:36:39;;;;;;;15.45;5.10;;;;;;;12.35;97.66;102662.38;5053997;28;20052;-68
2023/05/25 07:39:07;;;;;;;16.58;5.70;;;;;;;12.43;97.44;102665.84;5052429;28;20493;-67
2023/05/25 07:41:35;;;;;;;14.73;5.63;;;;;;;12.53;98.91;102666.09;5033107;28;20065;-67
2023/05/25 07:44:03;;;;;;;15.32;5.28;;;;;;;12.55;96.39;102664.81;5047465;28;20049;-67
2023/05/25 07:46:31;;;;;;;15.18;5.50;;;;;;;12.59;95.58;102667.91;5036500;28;20049;-67
2023/05/25 07:48:59;;;;;;;15.38;5.63;;;;;;;12.56;95.25;102668.38;5036256;28;20077;-67
2023/05/25 07:51:29;;;;;;;18.63;5.97;;;;;;;12.54;95.74;102670.50;5036101;28;20049;-67
2023/05/25 07:53:57;;;;;;;20.95;5.68;;;;;;;12.58;96.90;102668.97;5048974;28;20071;-68
2023/05/25 07:56:25;;;;;;;15.10;5.03;;;;;;;12.65;95.90;102666.09;5034930;28;20076;-67
2023/05/25 07:58:53;;;;;;;17.25;5.93;;;;;;;12.73;96.18;102672.06;5033949;28;20073;-67
2023/05/25 08:01:21;;;;;;;15.55;6.05;;;;;;;12.79;94.83;102679.34;5068197;28;20496;-70
2023/05/25 08:03:52;;;;;;;15.63;4.97;;;;;;;12.84;95.05;102675.88;5038102;28;20175;-67
2023/05/25 08:06:20;;;;;;;16.48;5.88;;;;;;;12.85;93.28;102677.56;5056552;28;20045;-68
2023/05/25 08:08:48;;;;;;;17.50;6.40;;;;;;;12.87;92.88;102680.88;5055283;28;20099;-66
2023/05/25 08:11:16;;;;;;;20.33;6.53;;;;;;;12.89;92.84;102680.63;5057270;28;20116;-66
2023/05/25 08:13:44;;;;;;;15.40;5.30;;;;;;;12.91;91.95;102675.75;5050843;28;20054;-66
2023/05/25 08:16:12;;;;;;;12.30;4.78;;;;;;;12.94;91.65;102675.28;5043904;28;20095;-66
2023/05/25 08:18:42;;;;;;;18.95;6.32;;;;;;;13.00;90.82;102685.28;5056419;28;20433;-66
2023/05/25 08:21:10;;;;;;;21.80;7.30;;;;;;;13.09;89.67;102678.38;5034803;28;20052;-67
2023/05/25 08:23:41;;;;;;;20.40;5.95;;;;;;;13.13;89.21;102679.56;5047163;28;20045;-66
2023/05/25 08:26:10;;;;;;;18.15;6.18;;;;;;;13.17;88.54;102685.38;5056893;28;20073;-68
2023/05/25 08:28:58;;;;;;;20.63;7.10;;;;;;;13.26;88.64;102692.16;5060063;28;20123;-67
2023/05/25 08:31:26;;;;;;;15.70;5.15;;;;;;;13.27;88.53;102698.47;5061568;28;20049;-66
2023/05/25 08:33:53;;;;;;;23.33;6.35;;;;;;;13.33;88.63;102694.81;5034896;28;20045;-66
2023/05/25 08:36:21;;;;;;;20.38;6.63;;;;;;;13.32;88.61;102688.47;5045720;28;20084;-67
2023/05/25 08:38:49;;;;;;;21.58;7.15;;;;;;;13.35;89.03;102692.66;5055021;28;20098;-66
2023/05/25 08:41:16;;;;;;;18.33;5.53;;;;;;;13.35;88.83;102698.97;5053845;28;20064;-67
2023/05/25 08:43:44;;;;;;;13.95;4.60;;;;;;;13.39;89.28;102699.31;5032878;28;20520;-67
2023/05/25 08:46:12;;;;;;;17.00;5.10;;;;;;;13.47;88.98;102701.69;5051704;28;20128;-67
2023/05/25 08:48:41;;;;;;;17.35;5.47;;;;;;;13.47;88.17;102706.31;5034743;28;20049;-66
2023/05/25 08:51:10;;;;;;;17.58;5.70;;;;;;;13.42;86.98;102704.28;5035870;28;20045;-66
2023/05/25 08:53:40;;;;;;;13.52;5.38;;;;;;;13.36;87.18;102705.28;5021814;28;20048;-66
2023/05/25 08:56:18;;;;;;;16.73;5.28;;;;;;;13.37;87.74;102696.81;5049615;28;20124;-66
2023/05/25 08:58:56;;;;;;;18.20;5.35;;;;;;;13.41;87.75;102713.59;5035257;28;20067;-68
2023/05/25 09:01:26;;;;;;;17.08;5.75;;;;;;;13.44;87.63;102707.63;5047405;28;20072;-66
2023/05/25 09:03:56;;;;;;;14.63;5.20;;;;;;;13.42;87.95;102710.63;5053559;28;20120;-67
2023/05/25 09:06:25;;;;;;;18.13;5.28;;;;;;;13.43;88.91;102719.66;5038975;28;20056;-65
2023/05/25 09:08:54;;;;;;;13.50;5.03;;;;;;;13.40;88.46;102718.25;5040877;28;20048;-68
2023/05/25 09:11:22;;;;;;;15.27;5.97;;;;;;;13.41;86.57;102730.84;5057815;28;20056;-67
2023/05/25 09:14:07;;;;;;;18.80;5.32;;;;;;;13.39;82.97;102715.72;5035522;28;20141;-66
2023/05/25 09:16:37;;;;;;;15.57;5.53;;;;;;;13.39;82.47;102711.09;5035468;28;20052;-66
2023/05/25 09:19:05;;;;;;;15.10;5.38;;;;;;;13.49;84.71;102723.34;5040050;28;20504;-67
2023/05/25 09:21:33;;;;;;;15.93;5.22;;;;;;;13.54;82.49;102727.03;5056083;28;20056;-66
2023/05/25 09:24:01;;;;;;;13.82;5.00;;;;;;;13.61;81.86;102719.53;5053267;28;20103;-65
2023/05/25 09:26:28;;;;;;;11.85;5.10;;;;;;;13.71;81.81;102712.56;5022300;28;20069;-66
2023/05/25 09:28:56;;;;;;;12.55;4.68;;;;;;;13.75;80.84;102719.22;5035356;28;20099;-66
2023/05/25 09:31:24;;;;;;;17.27;5.20;;;;;;;13.75;79.83;102714.56;5038622;28;20065;-69
2023/05/25 09:33:58;;;;;;;14.90;4.90;;;;;;;13.77;79.87;102717.91;5052562;28;20091;-66
2023/05/25 09:36:27;;;;;;;12.65;4.38;;;;;;;13.80;80.16;102727.56;5055223;28;20347;-67
2023/05/25 09:38:55;;;;;;;14.75;4.60;;;;;;;13.83;79.75;102710.66;5054611;28;20405;-66
2023/05/25 09:41:26;;;;;;;16.23;4.78;;;;;;;13.86;81.02;102718.38;5037152;28;20140;-68
2023/05/25 09:43:54;;;;;;;13.85;4.60;;;;;;;13.84;82.40;102717.78;5055858;28;20470;-67
2023/05/25 09:46:37;;;;;;;18.05;5.13;;;;;;;13.81;82.17;102723.75;5036814;28;20508;-66
2023/05/25 09:49:07;;;;;;;13.07;4.07;;;;;;;13.79;81.02;102720.41;5055495;28;20528;-67
2023/05/25 09:51:35;;;;;;;15.63;4.78;;;;;;;13.81;80.93;102724.56;5055344;28;20083;-67
2023/05/25 09:54:07;;;;;;;15.73;4.97;;;;;;;13.85;82.36;102719.44;5054178;28;20048;-67
2023/05/25 09:56:35;;;;;;;15.88;4.75;;;;;;;13.90;83.16;102724.19;5055593;28;20045;-66
2023/05/25 09:59:03;;;;;;;14.55;5.20;;;;;;;13.88;81.74;102724.44;5056862;28;20052;-66
2023/05/25 10:01:33;;;;;;;15.65;5.93;;;;;;;13.88;81.96;102723.59;5054686;28;20041;-65
2023/05/25 10:04:01;;;;;;;16.58;5.00;;;;;;;13.87;81.19;102720.03;5045715;28;20050;-66
2023/05/25 10:06:32;;;;;;;15.23;5.07;;;;;;;13.93;80.71;102732.75;5036712;28;20057;-65
2023/05/25 10:09:00;;;;;;;16.20;5.15;;;;;;;13.92;80.12;102739.31;5045410;28;20048;-65
2023/05/25 10:11:28;;;;;;;12.93;4.20;;;;;;;13.91;79.92;102740.38;5020338;28;20054;-66
2023/05/25 10:13:59;;;;;;;15.05;5.07;;;;;;;13.93;81.21;102732.75;5037022;28;20497;-66
2023/05/25 10:16:28;;;;;;;15.05;4.55;;;;;;;13.90;79.31;102741.44;5018101;28;20444;-66
2023/05/25 10:19:21;;;;;;;18.45;4.70;;;;;;;13.90;80.39;102727.75;5053483;28;20132;-64
2023/05/25 10:22:06;;;;;;;15.60;4.93;;;;;;;13.92;80.46;102722.84;5043877;28;20435;-66
2023/05/25 10:24:42;;;;;;;19.15;5.15;;;;;;;14.00;80.66;102722.50;5056759;28;20051;-65
2023/05/25 10:27:16;;;;;;;14.55;4.97;;;;;;;14.12;81.72;102724.31;5064083;28;20048;-67
2023/05/25 10:29:56;;;;;;;13.82;5.15;;;;;;;14.19;81.08;102725.88;5037308;28;20068;-67
2023/05/25 10:32:24;;;;;;;17.15;4.68;;;;;;;14.24;79.47;102723.22;5039512;28;20053;-67
2023/05/25 10:34:52;;;;;;;14.45;5.03;;;;;;;14.27;79.13;102730.13;5038867;28;20054;-64
2023/05/25 10:37:20;;;;;;;20.25;5.88;;;;;;;14.26;79.16;102717.47;5035059;28;20379;-66
2023/05/25 10:39:49;;;;;;;16.42;5.68;;;;;;;14.24;79.56;102731.44;5038577;28;20045;-65
2023/05/25 10:42:18;;;;;;;14.88;5.07;;;;;;;14.25;79.52;102724.03;5040114;28;20095;-67
2023/05/25 10:44:46;;;;;;;10.25;4.15;;;;;;;14.28;79.07;102724.38;5040146;28;20096;-65
2023/05/25 10:47:15;;;;;;;15.23;5.15;;;;;;;14.34;78.14;102722.56;5055955;28;20071;-65
2023/05/25 10:49:57;;;;;;;16.15;5.10;;;;;;;14.38;78.94;102726.50;5029939;28;20120;-65
2023/05/25 10:52:29;;;;;;;24.75;5.47;;;;;;;14.40;77.72;102726.22;5036790;28;20053;-66
2023/05/25 10:55:03;;;;;;;16.85;4.55;;;;;;;14.39;77.80;102719.91;5052437;28;20091;-66
2023/05/25 10:57:31;;;;;;;17.83;5.45;;;;;;;14.40;78.88;102723.47;5053031;28;20072;-66
2023/05/25 11:00:07;;;;;;;14.00;5.07;;;;;;;14.45;78.58;102716.16;5032882;28;20132;-66
2023/05/25 11:02:54;;;;;;;14.20;4.90;;;;;;;14.58;77.87;102719.72;4984255;28;20103;-67
2023/05/25 11:05:25;;;;;;;17.27;5.03;;;;;;;14.72;77.37;102718.31;5034182;28;20073;-66
2023/05/25 11:07:54;;;;;;;15.50;5.18;;;;;;;14.84;77.20;102713.56;5070531;28;20109;-65
2023/05/25 11:10:41;;;;;;;17.23;5.25;;;;;;;14.88;76.26;102722.13;5073911;28;20048;-66
2023/05/25 11:13:44;;;;;;;18.77;5.03;;;;;;;14.88;77.03;102706.47;5054416;28;20048;-65
2023/05/25 11:16:19;;;;;;;17.77;5.97;;;;;;;14.97;75.94;102712.38;5034711;28;20060;-66
2023/05/25 11:18:56;;;;;;;14.65;5.20;;;;;;;14.98;75.73;102708.53;5054584;28;20057;-66
2023/05/25 11:21:27;;;;;;;;;;;;;;;14.99;75.78;102707.47;5053094;28;20060;-66
2023/05/25 11:24:03;;;;;;;13.77;4.97;;;;;;;15.03;76.53;102710.53;5053326;28;19974;-65
2023/05/25 11:26:33;;;;;;;15.63;5.20;;;;;;;15.02;76.04;102717.13;5053471;28;20124;-66